sensor_id;sensor_type;location;lat;lon;timestamp;pressure;altitude;pressure_sealevel;temperature;humidity
46382;BME280;66809;52.974;-2.514;2023-02-20T00:01:45;1016.1515742793415;;;5.313058814204408;43.872516216504664
46382;BME280;66809;52.974;-2.514;2023-02-20T00:03:40;1016.1424755517777;;;5.325125673257216;43.872949557551166
46382;BME280;66809;52.974;-2.514;2023-02-20T00:05:41;1016.1351933165076;;;5.326098747229724;43.884517044311345
46382;BME280;66809;52.974;-2.514;2023-02-20T00:07:40;1016.1284952803836;;;5.330276139457072;43.89804341152715
46382;BME280;66809;52.974;-2.514;2023-02-20T00:09:39;1016.1238640049149;;;5.329878450866371;43.908951124118246
46382;BME280;66809;52.974;-2.514;2023-02-20T00:11:40;1016.1202402387058;;;5.333546788569454;43.922383212887546
46382;BME280;66809;52.974;-2.514;2023-02-20T00:13:44;1016.1178284893139;;;5.344717807933751;43.93525131770108
46382;BME280;66809;52.974;-2.514;2023-02-20T00:15:40;1016.1119521031267;;;5.360920861210776;43.950459979313464
46382;BME280;66809;52.974;-2.514;2023-02-20T00:17:41;1016.1057909117685;;;5.370389042896381;43.96548297582272
46382;BME280;66809;52.974;-2.514;2023-02-20T00:19:40;1016.0999402518565;;;5.376022235338016;43.97826902019891
46382;BME280;66809;52.974;-2.514;2023-02-20T00:21:44;1016.0934920309403;;;5.382022298570351;43.982917965212444
46382;BME280;66809;52.974;-2.514;2023-02-20T00:23:40;1016.0909245818865;;;5.40556918304093;43.97206845236355
46382;BME280;66809;52.974;-2.514;2023-02-20T00:25:39;1016.0917148965448;;;5.419307515982822;43.95731745601753
46382;BME280;66809;52.974;-2.514;2023-02-20T00:27:41;1016.0951960921998;;;5.425376512711853;43.941014062909886
46382;BME280;66809;52.974;-2.514;2023-02-20T00:29:40;1016.0984956367371;;;5.4420308169929275;43.92664838421613
46382;BME280;66809;52.974;-2.514;2023-02-20T00:31:39;1016.1019394064057;;;5.455664856433405;43.91935676863845
46382;BME280;66809;52.974;-2.514;2023-02-20T00:33:41;1016.1064691413428;;;5.458270792992269;43.920215659947615
46382;BME280;66809;52.974;-2.514;2023-02-20T00:35:39;1016.1108295609133;;;5.462077581225029;43.928544757186465
46382;BME280;66809;52.974;-2.514;2023-02-20T00:37:40;1016.1142415159277;;;5.471036058509753;43.93977378509339
46382;BME280;66809;52.974;-2.514;2023-02-20T00:39:40;1016.1186420624357;;;5.472769873485698;43.961582346545576
46382;BME280;66809;52.974;-2.514;2023-02-20T00:41:40;1016.123610950982;;;5.478747335733467;43.98465084437058
46382;BME280;66809;52.974;-2.514;2023-02-20T00:43:40;1016.129622048458;;;5.484975830685648;44.005123368087055
46382;BME280;66809;52.974;-2.514;2023-02-20T00:45:40;1016.1373423713791;;;5.491442510162389;44.01291314054256
46382;BME280;66809;52.974;-2.514;2023-02-20T00:47:40;1016.1409064480195;;;5.499740145855632;44.01148916257106
46382;BME280;66809;52.974;-2.514;2023-02-20T00:49:40;1016.1446507184036;;;5.520105230793818;44.016471025208354
46382;BME280;66809;52.974;-2.514;2023-02-20T00:51:39;1016.1438957428239;;;5.533357033498869;44.01718128204532
46382;BME280;66809;52.974;-2.514;2023-02-20T00:53:40;1016.1429407279526;;;5.550802909123856;44.02719583238021
46382;BME280;66809;52.974;-2.514;2023-02-20T00:55:40;1016.1400326410559;;;5.5505359498511275;44.0414588448842
46382;BME280;66809;52.974;-2.514;2023-02-20T00:57:40;1016.1362609421366;;;5.562104744747064;44.05494110810078
46382;BME280;66809;52.974;-2.514;2023-02-20T00:59:40;1016.1296484434974;;;5.5684832297971845;44.05619209893602
46382;BME280;66809;52.974;-2.514;2023-02-20T01:01:40;1016.1220252312568;;;5.572456665702735;44.06907260383707
46382;BME280;66809;52.974;-2.514;2023-02-20T01:03:40;1016.1149984479744;;;5.5738853872312575;44.08910007425764
46382;BME280;66809;52.974;-2.514;2023-02-20T01:05:39;1016.1048813315628;;;5.586160767739169;44.0937173058732
46382;BME280;66809;52.974;-2.514;2023-02-20T01:07:40;1016.0939952931938;;;5.581109469348227;44.10015080218292
46382;BME280;66809;52.974;-2.514;2023-02-20T01:09:40;1016.0822722803931;;;5.579877644936297;44.11604889864761
46382;BME280;66809;52.974;-2.514;2023-02-20T01:11:40;1016.0698016886433;;;5.58053790958347;44.13574846644884
46382;BME280;66809;52.974;-2.514;2023-02-20T01:13:40;1016.0577802482809;;;5.575270946364507;44.14873587961474
46382;BME280;66809;52.974;-2.514;2023-02-20T01:15:40;1016.0461047012027;;;5.556890708773594;44.164322674866305
46382;BME280;66809;52.974;-2.514;2023-02-20T01:17:40;1016.033823759724;;;5.547121337210833;44.17670040438688
46382;BME280;66809;52.974;-2.514;2023-02-20T01:19:40;1016.0213631185289;;;5.537850699782187;44.20081465975123
46382;BME280;66809;52.974;-2.514;2023-02-20T01:21:40;1016.0096073858969;;;5.523390331251602;44.2352901553957
46382;BME280;66809;52.974;-2.514;2023-02-20T01:23:40;1015.9962348009229;;;5.496843166452832;44.27548207363655
46382;BME280;66809;52.974;-2.514;2023-02-20T01:25:40;1015.9804526900688;;;5.480591090456088;44.319192881198184
46382;BME280;66809;52.974;-2.514;2023-02-20T01:27:40;1015.9626890727228;;;5.47836032815419;44.36378928341716
46382;BME280;66809;52.974;-2.514;2023-02-20T01:29:40;1015.942761584997;;;5.463269924401386;44.40588094298088
46382;BME280;66809;52.974;-2.514;2023-02-20T01:31:39;1015.9216053445009;;;5.4554511647869335;44.43827867093964
46382;BME280;66809;52.974;-2.514;2023-02-20T01:33:40;1015.8994180513663;;;5.444639197645756;44.46310319171081
46382;BME280;66809;52.974;-2.514;2023-02-20T01:35:40;1015.8757569635749;;;5.438453209016728;44.476190191227644
46382;BME280;66809;52.974;-2.514;2023-02-20T01:37:40;1015.8524044201755;;;5.435371799655673;44.479865919684926
46382;BME280;66809;52.974;-2.514;2023-02-20T01:39:39;1015.8260099073096;;;5.440028580047272;44.48382394218624
46382;BME280;66809;52.974;-2.514;2023-02-20T01:41:40;1015.7993784623139;;;5.427154065771716;44.485444748713896
46382;BME280;66809;52.974;-2.514;2023-02-20T01:43:40;1015.7700105873348;;;5.421636069603308;44.4953890734255
46382;BME280;66809;52.974;-2.514;2023-02-20T01:45:40;1015.7398924015795;;;5.41139235150971;44.508805862534565
46382;BME280;66809;52.974;-2.514;2023-02-20T01:47:39;1015.7106870938309;;;5.405774528803278;44.52938314482071
46382;BME280;66809;52.974;-2.514;2023-02-20T01:49:42;1015.6812534745169;;;5.386390240242403;44.55607471835655
46382;BME280;66809;52.974;-2.514;2023-02-20T01:51:43;1015.653397874386;;;5.370053207120763;44.5907331586397
46382;BME280;66809;52.974;-2.514;2023-02-20T01:53:39;1015.6252243803843;;;5.346726443573102;44.624626625589954
46382;BME280;66809;52.974;-2.514;2023-02-20T01:55:43;1015.597722592264;;;5.33893085549608;44.65360900026174
46382;BME280;66809;52.974;-2.514;2023-02-20T01:57:42;1015.569312698414;;;5.332215814299805;44.68793516023417
46382;BME280;66809;52.974;-2.514;2023-02-20T01:59:40;1015.543280392869;;;5.327115492094878;44.72568602987694
46382;BME280;66809;52.974;-2.514;2023-02-20T02:01:40;1015.5185749840655;;;5.333262775965774;44.754631393695306
46382;BME280;66809;52.974;-2.514;2023-02-20T02:03:42;1015.495560665864;;;5.330235512239251;44.77226254479287
46382;BME280;66809;52.974;-2.514;2023-02-20T02:05:43;1015.4737447872277;;;5.32477881493441;44.79641613352603
46382;BME280;66809;52.974;-2.514;2023-02-20T02:07:40;1015.4521718684995;;;5.339498535857278;44.81061230323883
46382;BME280;66809;52.974;-2.514;2023-02-20T02:09:45;1015.4315689082279;;;5.346525188175705;44.818647865457415
46382;BME280;66809;52.974;-2.514;2023-02-20T02:11:40;1015.4099204438604;;;5.354254628586454;44.81978782203119
46382;BME280;66809;52.974;-2.514;2023-02-20T02:13:42;1015.3873690825535;;;5.372136899613471;44.82431559827146
46382;BME280;66809;52.974;-2.514;2023-02-20T02:15:40;1015.3644491525699;;;5.401340756104144;44.83449846547737
46382;BME280;66809;52.974;-2.514;2023-02-20T02:17:53;1015.342604141846;;;5.419029301692341;44.846602376445645
46382;BME280;66809;52.974;-2.514;2023-02-20T02:19:57;1015.3193139863604;;;5.440938970790728;44.85249396039834
46382;BME280;66809;52.974;-2.514;2023-02-20T02:21:58;1015.2941851120092;;;5.457893271954295;44.84910646150327
46382;BME280;66809;52.974;-2.514;2023-02-20T02:24:04;1015.2713123385917;;;5.485942585932502;44.8442534325927
46382;BME280;66809;52.974;-2.514;2023-02-20T02:25:46;1015.2462729338774;;;5.508141254879326;44.84239814394687
46382;BME280;66809;52.974;-2.514;2023-02-20T02:28:59;1015.2204970201536;;;5.52388047378839;44.8403386476517
46382;BME280;66809;52.974;-2.514;2023-02-20T02:29:57;1015.1965984873319;;;5.5346101872163445;44.84215332214088
46382;BME280;66809;52.974;-2.514;2023-02-20T02:32:00;1015.1727978647849;;;5.546533695669534;44.849196444239205
46382;BME280;66809;52.974;-2.514;2023-02-20T02:33:58;1015.1510174342274;;;5.565995255883044;44.86352413320882
46382;BME280;66809;52.974;-2.514;2023-02-20T02:35:58;1015.1298762765866;;;5.577038374492575;44.87950120552156
46382;BME280;66809;52.974;-2.514;2023-02-20T02:37:45;1015.109969810709;;;5.582277827646014;44.90256528439805
46382;BME280;66809;52.974;-2.514;2023-02-20T02:39:45;1015.0910487509373;;;5.58980323332652;44.91991020436205
46382;BME280;66809;52.974;-2.514;2023-02-20T02:41:45;1015.0743317450823;;;5.612802494697305;44.93397554358909
46382;BME280;66809;52.974;-2.514;2023-02-20T02:43:46;1015.059781200252;;;5.62047461161086;44.952588014469704
46382;BME280;66809;52.974;-2.514;2023-02-20T02:45:45;1015.0449949372291;;;5.641241303622398;44.96867820551305
46382;BME280;66809;52.974;-2.514;2023-02-20T02:47:45;1015.0297456530783;;;5.651755408859649;44.98041392898873
46382;BME280;66809;52.974;-2.514;2023-02-20T02:49:46;1015.016014132347;;;5.67296555158526;44.987792913240405
46382;BME280;66809;52.974;-2.514;2023-02-20T02:51:42;1015.0022476471638;;;5.6878700508793525;44.99098196240843
46382;BME280;66809;52.974;-2.514;2023-02-20T02:53:40;1014.9891454304754;;;5.708072976686311;45.00231427878755
46382;BME280;66809;52.974;-2.514;2023-02-20T02:55:40;1014.9754016777155;;;5.727055704943056;45.01461058099876
46382;BME280;66809;52.974;-2.514;2023-02-20T02:57:40;1014.9645268228713;;;5.733075142293916;45.02292251490633
46382;BME280;66809;52.974;-2.514;2023-02-20T02:59:40;1014.9513362990466;;;5.741832284300672;45.033259871619755
46382;BME280;66809;52.974;-2.514;2023-02-20T03:01:43;1014.9365351305297;;;5.7479868382144845;45.04143925398004
46382;BME280;66809;52.974;-2.514;2023-02-20T03:03:43;1014.9208066508962;;;5.756210467693032;45.046031102445546
46382;BME280;66809;52.974;-2.514;2023-02-20T03:05:45;1014.9051317641437;;;5.769578717403099;45.04827194775125
46382;BME280;66809;52.974;-2.514;2023-02-20T03:07:42;1014.887573626089;;;5.774772396091205;45.056609414885756
46382;BME280;66809;52.974;-2.514;2023-02-20T03:09:42;1014.8696328609715;;;5.786368861046205;45.06396108608815
46382;BME280;66809;52.974;-2.514;2023-02-20T03:11:40;1014.8531746345237;;;5.797637697567689;45.073228814231456
46382;BME280;66809;52.974;-2.514;2023-02-20T03:13:42;1014.835281308821;;;5.788836374313514;45.07928064948215
46382;BME280;66809;52.974;-2.514;2023-02-20T03:15:43;1014.8194259485938;;;5.779182269039433;45.084716678121204
46382;BME280;66809;52.974;-2.514;2023-02-20T03:17:45;1014.8036947403432;;;5.778835393930998;45.090262474498914
46382;BME280;66809;52.974;-2.514;2023-02-20T03:19:43;1014.7921715891714;;;5.768667123579648;45.09494239434736
46382;BME280;66809;52.974;-2.514;2023-02-20T03:21:42;1014.7813634489851;;;5.771084377814699;45.100697931062925
46382;BME280;66809;52.974;-2.514;2023-02-20T03:23:43;1014.76866193253;;;5.769396992411396;45.110055174735166
46382;BME280;66809;52.974;-2.514;2023-02-20T03:25:47;1014.7575947667516;;;5.760244873457378;45.121230717739216
46382;BME280;66809;52.974;-2.514;2023-02-20T03:27:43;1014.7476929088831;;;5.76059620792802;45.134813293939246
46382;BME280;66809;52.974;-2.514;2023-02-20T03:29:40;1014.7372553446456;;;5.764327538587514;45.145676312497564
46382;BME280;66809;52.974;-2.514;2023-02-20T03:31:43;1014.7284586683411;;;5.757449742237777;45.15236320188235
46382;BME280;66809;52.974;-2.514;2023-02-20T03:33:43;1014.7175497265596;;;5.757523050887696;45.155346599127725
46382;BME280;66809;52.974;-2.514;2023-02-20T03:35:42;1014.7084558809704;;;5.762308490830308;45.15821416613362
46382;BME280;66809;52.974;-2.514;2023-02-20T03:37:40;1014.698434740051;;;5.760571390287179;45.16339423700966
46382;BME280;66809;52.974;-2.514;2023-02-20T03:39:43;1014.6893818257961;;;5.762089418668627;45.16992498150727
46382;BME280;66809;52.974;-2.514;2023-02-20T03:41:41;1014.676657789768;;;5.738641663863072;45.182637464254505
46382;BME280;66809;52.974;-2.514;2023-02-20T03:43:41;1014.6649542564968;;;5.732803754347956;45.18865205545284
46382;BME280;66809;52.974;-2.514;2023-02-20T03:45:41;1014.6528059922649;;;5.71817670250813;45.19777055473204
46382;BME280;66809;52.974;-2.514;2023-02-20T03:47:43;1014.6401697058662;;;5.712601372580177;45.205146444378535
46382;BME280;66809;52.974;-2.514;2023-02-20T03:49:42;1014.6273089147251;;;5.697986511919963;45.21423469237943
46382;BME280;66809;52.974;-2.514;2023-02-20T03:51:40;1014.616029274822;;;5.692523117702035;45.22837517312578
46382;BME280;66809;52.974;-2.514;2023-02-20T03:53:41;1014.6030932956538;;;5.677641213288085;45.232531000319476
46382;BME280;66809;52.974;-2.514;2023-02-20T03:55:40;1014.5906792395173;;;5.662303006299544;45.23385995766953
46382;BME280;66809;52.974;-2.514;2023-02-20T03:57:43;1014.5782706703209;;;5.651225199235382;45.22703536355333
46382;BME280;66809;52.974;-2.514;2023-02-20T03:59:43;1014.5685743333835;;;5.632790790583593;45.23038393019535
46382;BME280;66809;52.974;-2.514;2023-02-20T04:01:41;1014.5589079587423;;;5.609857872997523;45.23091629114358
46382;BME280;66809;52.974;-2.514;2023-02-20T04:03:43;1014.548802795149;;;5.604557290202894;45.230588834710694
46382;BME280;66809;52.974;-2.514;2023-02-20T04:05:42;1014.5353053447071;;;5.588130797976534;45.22803339157556
46382;BME280;66809;52.974;-2.514;2023-02-20T04:07:42;1014.5184439326208;;;5.569398990067998;45.23242345750294
46382;BME280;66809;52.974;-2.514;2023-02-20T04:09:42;1014.4988906812622;;;5.54974108859008;45.23846786143282
46382;BME280;66809;52.974;-2.514;2023-02-20T04:11:43;1014.4802865474835;;;5.536704827045306;45.249575876218636
46382;BME280;66809;52.974;-2.514;2023-02-20T04:13:40;1014.4653509843207;;;5.524001953441061;45.26002113211871
46382;BME280;66809;52.974;-2.514;2023-02-20T04:15:41;1014.4510215427757;;;5.513205979042927;45.26512777922251
46382;BME280;66809;52.974;-2.514;2023-02-20T04:17:45;1014.434155307603;;;5.498420560975571;45.27528274206041
46382;BME280;66809;52.974;-2.514;2023-02-20T04:19:40;1014.4128548895444;;;5.491907507887138;45.28233442965913
46382;BME280;66809;52.974;-2.514;2023-02-20T04:21:42;1014.3895829747156;;;5.481980951646921;45.294220688066865
46382;BME280;66809;52.974;-2.514;2023-02-20T04:23:42;1014.3672312890529;;;5.467415582879698;45.30725680929488
46382;BME280;66809;52.974;-2.514;2023-02-20T04:25:44;1014.3464589060137;;;5.462674882687135;45.316324050551984
46382;BME280;66809;52.974;-2.514;2023-02-20T04:27:40;1014.3270856123931;;;5.448368298609624;45.325600026279076
46382;BME280;66809;52.974;-2.514;2023-02-20T04:29:40;1014.3081329901455;;;5.432354969310565;45.33894148927074
46382;BME280;66809;52.974;-2.514;2023-02-20T04:31:40;1014.292518389731;;;5.425243369004975;45.36051979695093
46382;BME280;66809;52.974;-2.514;2023-02-20T04:33:40;1014.2828277276539;;;5.409848504321064;45.376311736017705
46382;BME280;66809;52.974;-2.514;2023-02-20T04:35:40;1014.2731675359792;;;5.398793219971675;45.39213328675066
46382;BME280;66809;52.974;-2.514;2023-02-20T04:37:40;1014.2650109376284;;;5.389147401247978;45.40216772027548
46382;BME280;66809;52.974;-2.514;2023-02-20T04:39:41;1014.2579261757218;;;5.37512282790198;45.39911644279276
46382;BME280;66809;52.974;-2.514;2023-02-20T04:41:40;1014.2552577288865;;;5.3808234904168675;45.391426348915516
46382;BME280;66809;52.974;-2.514;2023-02-20T04:43:40;1014.2530005948079;;;5.386661949553518;45.374463817834034
46382;BME280;66809;52.974;-2.514;2023-02-20T04:45:40;1014.2528983366641;;;5.392835748056696;45.34907422346008
46382;BME280;66809;52.974;-2.514;2023-02-20T04:47:40;1014.2557907666634;;;5.393144099240261;45.32114674046734
46382;BME280;66809;52.974;-2.514;2023-02-20T04:49:40;1014.2587630935284;;;5.403407737324112;45.28915314855466
46382;BME280;66809;52.974;-2.514;2023-02-20T04:51:39;1014.2625541436541;;;5.414837523534045;45.24871420426336
46382;BME280;66809;52.974;-2.514;2023-02-20T04:53:40;1014.2690016983637;;;5.42377283835043;45.21350122440544
46382;BME280;66809;52.974;-2.514;2023-02-20T04:55:40;1014.2755271538416;;;5.43396697701121;45.18159962774472
46382;BME280;66809;52.974;-2.514;2023-02-20T04:57:39;1014.2819843268512;;;5.447134412446146;45.15350459286257
46382;BME280;66809;52.974;-2.514;2023-02-20T04:59:40;1014.2877897152149;;;5.479659647181611;45.114962895226725
46382;BME280;66809;52.974;-2.514;2023-02-20T05:01:40;1014.2934996409482;;;5.503435009103668;45.07680392986445
46382;BME280;66809;52.974;-2.514;2023-02-20T05:03:40;1014.3009925354345;;;5.523232462558666;45.04725976686533
46382;BME280;66809;52.974;-2.514;2023-02-20T05:05:40;1014.3123926215063;;;5.5402657927010015;45.02518641650859
46382;BME280;66809;52.974;-2.514;2023-02-20T05:07:40;1014.3293196561775;;;5.5618401445898895;45.00130584385953
46382;BME280;66809;52.974;-2.514;2023-02-20T05:09:42;1014.3514275077819;;;5.580961898722675;44.98093257610714
46382;BME280;66809;52.974;-2.514;2023-02-20T05:11:39;1014.3729973243994;;;5.58543677897065;44.96113359790446
46382;BME280;66809;52.974;-2.514;2023-02-20T05:13:40;1014.3940300737873;;;5.604828180417654;44.94639835866881
46382;BME280;66809;52.974;-2.514;2023-02-20T05:15:40;1014.4150243809033;;;5.616530998178362;44.934613773715675
46382;BME280;66809;52.974;-2.514;2023-02-20T05:17:40;1014.4391664042578;;;5.6352693408934496;44.911309361670384
46382;BME280;66809;52.974;-2.514;2023-02-20T05:19:39;1014.4625690956125;;;5.65638633285501;44.882566429430426
46382;BME280;66809;52.974;-2.514;2023-02-20T05:21:41;1014.4856000656985;;;5.677233025376086;44.844385703335156
46382;BME280;66809;52.974;-2.514;2023-02-20T05:23:40;1014.5095827296724;;;5.705525724504649;44.800083085666614
46382;BME280;66809;52.974;-2.514;2023-02-20T05:25:40;1014.5362144609443;;;5.723372123159622;44.76104608317906
46382;BME280;66809;52.974;-2.514;2023-02-20T05:27:40;1014.5618635439312;;;5.748026813270132;44.71940746996079
46382;BME280;66809;52.974;-2.514;2023-02-20T05:29:44;1014.5841230933798;;;5.777330014708685;44.67040514818827
46382;BME280;66809;52.974;-2.514;2023-02-20T05:31:40;1014.5989431982944;;;5.8110204618737225;44.61102640808248
46382;BME280;66809;52.974;-2.514;2023-02-20T05:33:39;1014.6046915578057;;;5.837609179610909;44.55499839566002
46382;BME280;66809;52.974;-2.514;2023-02-20T05:35:40;1014.6105228611892;;;5.862012338757143;44.49962933445244
46382;BME280;66809;52.974;-2.514;2023-02-20T05:37:40;1014.6138554706826;;;5.888265070576937;44.44403888446721
46382;BME280;66809;52.974;-2.514;2023-02-20T05:39:40;1014.6188501868261;;;5.916707183813935;44.39522631690275
46382;BME280;66809;52.974;-2.514;2023-02-20T05:41:40;1014.6241925811378;;;5.94776734712146;44.3463371673151
46382;BME280;66809;52.974;-2.514;2023-02-20T05:43:39;1014.6283580119446;;;5.971564246399933;44.309290225718364
46382;BME280;66809;52.974;-2.514;2023-02-20T05:45:41;1014.6296545567341;;;5.990091036205519;44.27446563704748
46382;BME280;66809;52.974;-2.514;2023-02-20T05:47:40;1014.6278857881364;;;6.0287362885227;44.23702111136033
46382;BME280;66809;52.974;-2.514;2023-02-20T05:49:39;1014.6225903556133;;;6.05136326380745;44.19489853812633
46382;BME280;66809;52.974;-2.514;2023-02-20T05:51:40;1014.614821713565;;;6.070785242669192;44.15606600359858
46382;BME280;66809;52.974;-2.514;2023-02-20T05:53:40;1014.6076536145661;;;6.090809606573217;44.11587500279591
46382;BME280;66809;52.974;-2.514;2023-02-20T05:55:39;1014.6015505949862;;;6.116116935923147;44.071966639355125
46382;BME280;66809;52.974;-2.514;2023-02-20T05:57:40;1014.5937791085929;;;6.139234764472722;44.033767547150994
46382;BME280;66809;52.974;-2.514;2023-02-20T05:59:40;1014.5847410877329;;;6.143095165364369;43.996209741350604
46382;BME280;66809;52.974;-2.514;2023-02-20T06:01:39;1014.5771272344102;;;6.152268762818555;43.96593321224743
46382;BME280;66809;52.974;-2.514;2023-02-20T06:03:40;1014.5701065678513;;;6.157755411983104;43.9377133503452
46382;BME280;66809;52.974;-2.514;2023-02-20T06:05:40;1014.5596019230283;;;6.169925484638218;43.90609706265963
46382;BME280;66809;52.974;-2.514;2023-02-20T06:07:42;1014.5459488624912;;;6.175341970057007;43.873207552250626
46382;BME280;66809;52.974;-2.514;2023-02-20T06:09:41;1014.5321443418771;;;6.179070938023165;43.84417986434011
46382;BME280;66809;52.974;-2.514;2023-02-20T06:11:40;1014.5177398909294;;;6.187538468458344;43.81594409100795
46382;BME280;66809;52.974;-2.514;2023-02-20T06:13:40;1014.4998915389496;;;6.186835161331211;43.78982039426661
46382;BME280;66809;52.974;-2.514;2023-02-20T06:15:40;1014.4818677346345;;;6.1878468565458205;43.76462819348633
46382;BME280;66809;52.974;-2.514;2023-02-20T06:17:40;1014.4659199464194;;;6.182270945318925;43.74717587606357
46382;BME280;66809;52.974;-2.514;2023-02-20T06:19:40;1014.4564538678322;;;6.182395030042487;43.737006239158625
46382;BME280;66809;52.974;-2.514;2023-02-20T06:21:44;1014.4492567118812;;;6.173969377899906;43.73724717994403
46382;BME280;66809;52.974;-2.514;2023-02-20T06:23:43;1014.4429163084609;;;6.165377096951582;43.73945660686595
46382;BME280;66809;52.974;-2.514;2023-02-20T06:25:40;1014.4334851631805;;;6.165157582106175;43.736903023082824
46382;BME280;66809;52.974;-2.514;2023-02-20T06:27:40;1014.4222779671228;;;6.15691282837794;43.72928488486577
46382;BME280;66809;52.974;-2.514;2023-02-20T06:29:40;1014.4138424802265;;;6.151596212977405;43.7272854588008
46382;BME280;66809;52.974;-2.514;2023-02-20T06:31:40;1014.4081196134962;;;6.13953307381015;43.72702339767167
46382;BME280;66809;52.974;-2.514;2023-02-20T06:33:40;1014.4073371697182;;;6.131262382527273;43.73686196495282
46382;BME280;66809;52.974;-2.514;2023-02-20T06:35:39;1014.4044116192413;;;6.11940828415362;43.75456103426825
46382;BME280;66809;52.974;-2.514;2023-02-20T06:37:40;1014.4014925751164;;;6.1007156579172745;43.7788628430031
46382;BME280;66809;52.974;-2.514;2023-02-20T06:39:41;1014.394138796616;;;6.07695238176043;43.807342384153266
46382;BME280;66809;52.974;-2.514;2023-02-20T06:41:40;1014.381538367237;;;6.050910857128372;43.836292708803064
46382;BME280;66809;52.974;-2.514;2023-02-20T06:43:40;1014.3658083777261;;;6.0284539204952825;43.8684219246992
46382;BME280;66809;52.974;-2.514;2023-02-20T06:45:40;1014.3517217598638;;;6.007850338717537;43.91101421577913
46382;BME280;66809;52.974;-2.514;2023-02-20T06:47:40;1014.3400716711686;;;5.974526676776234;43.9631164116774
46382;BME280;66809;52.974;-2.514;2023-02-20T06:49:40;1014.3331626492226;;;5.944651217159639;44.02533414960998
46382;BME280;66809;52.974;-2.514;2023-02-20T06:51:40;1014.3259099413896;;;5.911768431307997;44.08328459001421
46382;BME280;66809;52.974;-2.514;2023-02-20T06:53:40;1014.3195698120333;;;5.879008555689746;44.14084317450415
46382;BME280;66809;52.974;-2.514;2023-02-20T06:55:40;1014.3123031362037;;;5.845600623959224;44.2053067962429
46382;BME280;66809;52.974;-2.514;2023-02-20T06:57:39;1014.3064788576966;;;5.817327750732267;44.26861608194744
46382;BME280;66809;52.974;-2.514;2023-02-20T06:59:40;1014.3036332451833;;;5.795217720327897;44.327106710386566
46382;BME280;66809;52.974;-2.514;2023-02-20T07:01:41;1014.3008228969559;;;5.7811401116500765;44.370773135963276
46382;BME280;66809;52.974;-2.514;2023-02-20T07:03:40;1014.2965526146148;;;5.755542077348058;44.40879078821198
46382;BME280;66809;52.974;-2.514;2023-02-20T07:05:40;1014.2969106965985;;;5.733439224607567;44.44700363442424
46382;BME280;66809;52.974;-2.514;2023-02-20T07:07:39;1014.2982604954101;;;5.718160117852312;44.48503574451872
46382;BME280;66809;52.974;-2.514;2023-02-20T07:09:40;1014.2973334756248;;;5.70952594946066;44.50649204860413
46382;BME280;66809;52.974;-2.514;2023-02-20T07:11:40;1014.2969366546666;;;5.710001492613764;44.524087307959626
46382;BME280;66809;52.974;-2.514;2023-02-20T07:13:40;1014.2983226306544;;;5.715901770038289;44.530350757501914